Juan Santamar?a International Airport (SJO/MROC)




Flight Aircraft Arriving
CPX618 B763
KMIA - Miami International Airport
United StatesFlorida Miami, Florida
Flight Aircraft Departing
CPX619 B763
KMIA - Miami International Airport
United StatesFlorida Miami, Florida
Airport Information
Location: San Jose, CR
Coordinates: 9.9939 / -84.2089
Elevation:
Time Offset:
Local Time:
UTC Time:
Jet A Price: $0.62/lbs

Current Weather
METAR: MROC 271000Z 11014G24KT CAVOK 22/17 A2990 NOSIG
TAF: MROC 270500Z 2706/2806 09015G28KT 9999 FEW040 TX29/2719Z TN19/2710Z

Recent Arrivals
Date Flight Type Depart
08/28/2020 CPX619 B763 Miami International Airport (KMIA)
06/21/2019 CPX719 B763 Miami International Airport (KMIA)
Recent Departures
Date Flight Type Arrive
08/28/2020 CPX618 B763 Miami International Airport (KMIA)
06/21/2019 CPX718 B763 Miami International Airport (KMIA)